createdAt,value
2017-06-13T00:00:03.685Z,933.53
2017-06-13T00:00:31.833Z,933.53
2017-06-13T00:00:59.955Z,933.55
2017-06-13T00:01:28.250Z,933.54
2017-06-13T00:01:56.373Z,933.51
2017-06-13T00:02:24.464Z,933.52
2017-06-13T00:02:52.744Z,933.5
2017-06-13T00:03:21.045Z,933.5
2017-06-13T00:03:49.231Z,933.5
2017-06-13T00:04:17.507Z,933.47
2017-06-13T00:04:45.675Z,933.5
2017-06-13T00:05:13.986Z,933.49
2017-06-13T00:05:42.221Z,933.48
2017-06-13T00:06:10.357Z,933.48
2017-06-13T00:06:38.686Z,933.48
2017-06-13T00:07:06.795Z,933.46
2017-06-13T00:07:34.756Z,933.48
2017-06-13T00:08:03.017Z,933.45
2017-06-13T00:08:31.184Z,933.47
2017-06-13T00:08:59.397Z,933.45
2017-06-13T00:09:27.600Z,933.4
2017-06-13T00:09:55.818Z,933.42
2017-06-13T00:10:23.874Z,933.4
2017-06-13T00:10:52.016Z,933.41
2017-06-13T00:11:20.209Z,933.4
2017-06-13T00:11:48.484Z,933.41
2017-06-13T00:12:16.739Z,933.37
2017-06-13T00:12:44.854Z,933.36
2017-06-13T00:13:13.031Z,933.36
2017-06-13T00:13:41.322Z,933.37
2017-06-13T00:14:09.593Z,933.38
2017-06-13T00:14:37.688Z,933.39
2017-06-13T00:15:05.945Z,933.36
2017-06-13T00:15:33.909Z,933.35
2017-06-13T00:16:02.065Z,933.35
2017-06-13T00:16:30.558Z,933.34
2017-06-13T00:16:58.654Z,933.36
2017-06-13T00:17:26.871Z,933.38
2017-06-13T00:17:55.133Z,933.35
2017-06-13T00:18:23.390Z,933.38
2017-06-13T00:18:51.361Z,933.41
2017-06-13T00:19:19.516Z,933.42
2017-06-13T00:19:47.582Z,933.37
2017-06-13T00:20:15.884Z,933.4
2017-06-13T00:20:43.911Z,933.4
2017-06-13T00:21:12.166Z,933.35
2017-06-13T00:21:40.495Z,933.36
2017-06-13T00:22:08.775Z,933.33
2017-06-13T00:22:36.911Z,933.33
2017-06-13T00:23:05.116Z,933.33
2017-06-13T00:23:33.252Z,933.28
2017-06-13T00:24:01.471Z,933.28
2017-06-13T00:24:29.652Z,933.28
2017-06-13T00:24:57.847Z,933.27
2017-06-13T00:25:26.087Z,933.27
2017-06-13T00:25:54.252Z,933.25
2017-06-13T00:26:22.368Z,933.25
2017-06-13T00:26:50.680Z,933.23
2017-06-13T00:27:18.933Z,933.22
2017-06-13T00:27:47.064Z,933.2
2017-06-13T00:28:15.177Z,933.16
2017-06-13T00:28:43.169Z,933.18
2017-06-13T00:29:11.147Z,933.17
2017-06-13T00:29:39.311Z,933.18
2017-06-13T00:30:07.552Z,933.19
2017-06-13T00:30:35.615Z,933.14
2017-06-13T00:31:03.779Z,933.19
2017-06-13T00:31:31.911Z,933.18
2017-06-13T00:32:00.350Z,933.17
2017-06-13T00:32:28.460Z,933.2
2017-06-13T00:32:56.733Z,933.15
2017-06-13T00:33:25.038Z,933.18
2017-06-13T00:33:53.290Z,933.18
2017-06-13T00:34:21.556Z,933.18
2017-06-13T00:34:49.823Z,933.15
2017-06-13T00:35:17.960Z,933.16
2017-06-13T00:35:46.066Z,933.17
2017-06-13T00:36:14.371Z,933.15
2017-06-13T00:36:42.679Z,933.18
2017-06-13T00:37:11.033Z,933.17
2017-06-13T00:37:39.222Z,933.22
2017-06-13T00:38:07.391Z,933.22
2017-06-13T00:38:35.559Z,933.22
2017-06-13T00:39:03.849Z,933.19
2017-06-13T00:39:31.936Z,933.21
2017-06-13T00:40:00.096Z,933.23
2017-06-13T00:40:28.403Z,933.24
2017-06-13T00:40:56.559Z,933.24
2017-06-13T00:41:24.814Z,933.25
2017-06-13T00:41:53.117Z,933.26
2017-06-13T00:42:21.302Z,933.3
2017-06-13T00:42:49.513Z,933.29
2017-06-13T00:43:17.756Z,933.33
2017-06-13T00:43:45.871Z,933.34
2017-06-13T00:44:14.035Z,933.35
2017-06-13T00:44:42.060Z,933.36
2017-06-13T00:45:10.326Z,933.33
2017-06-13T00:45:38.491Z,933.35
2017-06-13T00:46:06.704Z,933.35
2017-06-13T00:46:34.694Z,933.38
2017-06-13T00:47:02.893Z,933.37
2017-06-13T00:47:31.026Z,933.34
2017-06-13T00:47:59.256Z,933.35
2017-06-13T00:48:27.285Z,933.36
2017-06-13T00:48:55.490Z,933.35
2017-06-13T00:49:23.477Z,933.38
2017-06-13T00:49:51.622Z,933.35
2017-06-13T00:50:19.903Z,933.37
2017-06-13T00:50:48.154Z,933.34
2017-06-13T00:51:16.131Z,933.34
2017-06-13T00:51:44.333Z,933.33
2017-06-13T00:52:12.788Z,933.33
2017-06-13T00:52:41.025Z,933.33
2017-06-13T00:53:09.283Z,933.32
2017-06-13T00:53:37.534Z,933.31
2017-06-13T00:54:05.707Z,933.29
2017-06-13T00:54:33.858Z,933.3
2017-06-13T00:55:01.969Z,933.27
2017-06-13T00:55:30.134Z,933.31
2017-06-13T00:55:58.356Z,933.26
2017-06-13T00:56:26.420Z,933.29
2017-06-13T00:56:54.650Z,933.33
2017-06-13T00:57:23.002Z,933.26
2017-06-13T00:57:51.100Z,933.3
2017-06-13T00:58:19.353Z,933.29
2017-06-13T00:58:47.608Z,933.3
2017-06-13T00:59:15.817Z,933.3
2017-06-13T00:59:44.084Z,933.31
2017-06-13T01:00:12.260Z,933.34
2017-06-13T01:00:40.482Z,933.3
2017-06-13T01:01:08.515Z,933.31
2017-06-13T01:01:36.825Z,933.32
2017-06-13T01:02:05.108Z,933.33
2017-06-13T01:02:33.553Z,933.35
2017-06-13T01:03:01.709Z,933.34
2017-06-13T01:03:29.998Z,933.31
2017-06-13T01:03:58.189Z,933.35
2017-06-13T01:04:26.365Z,933.33
2017-06-13T01:04:54.657Z,933.34
2017-06-13T01:05:22.869Z,933.34
2017-06-13T01:05:51.094Z,933.32
2017-06-13T01:06:19.098Z,933.33
2017-06-13T01:06:47.363Z,933.35
2017-06-13T01:07:15.768Z,933.35
2017-06-13T01:07:43.872Z,933.34
2017-06-13T01:08:11.958Z,933.34
2017-06-13T01:08:40.249Z,933.31
2017-06-13T01:09:08.523Z,933.31
2017-06-13T01:09:36.688Z,933.33
2017-06-13T01:10:04.852Z,933.32
2017-06-13T01:10:33.076Z,933.33
2017-06-13T01:11:01.153Z,933.28
2017-06-13T01:11:29.266Z,933.27
2017-06-13T01:11:57.533Z,933.31
2017-06-13T01:12:25.925Z,933.29
2017-06-13T01:12:54.071Z,933.34
2017-06-13T01:13:22.166Z,933.31
2017-06-13T01:13:50.299Z,933.35
2017-06-13T01:14:18.500Z,933.36
2017-06-13T01:14:46.771Z,933.38
2017-06-13T01:15:14.933Z,933.35
2017-06-13T01:15:43.078Z,933.4
2017-06-13T01:16:11.296Z,933.38
2017-06-13T01:16:39.442Z,933.43
2017-06-13T01:17:07.661Z,933.42
2017-06-13T01:17:35.902Z,933.39
2017-06-13T01:18:04.078Z,933.44
2017-06-13T01:18:32.349Z,933.4
2017-06-13T01:19:00.556Z,933.39
2017-06-13T01:19:28.776Z,933.41
2017-06-13T01:19:56.970Z,933.41
2017-06-13T01:20:25.200Z,933.38
2017-06-13T01:20:53.289Z,933.4
2017-06-13T01:21:21.327Z,933.39
2017-06-13T01:21:49.432Z,933.4
2017-06-13T01:22:17.496Z,933.44
2017-06-13T01:22:45.967Z,933.43
2017-06-13T01:23:14.256Z,933.42
2017-06-13T01:23:42.338Z,933.41
2017-06-13T01:24:10.605Z,933.41
2017-06-13T01:24:38.807Z,933.43
2017-06-13T01:25:06.978Z,933.38
2017-06-13T01:25:35.029Z,933.42
2017-06-13T01:26:03.266Z,933.39
2017-06-13T01:26:31.284Z,933.4
2017-06-13T01:26:59.427Z,933.41
2017-06-13T01:27:27.555Z,933.43
2017-06-13T01:27:55.926Z,933.42
2017-06-13T01:28:24.076Z,933.4
2017-06-13T01:28:52.253Z,933.41
2017-06-13T01:29:20.439Z,933.45
2017-06-13T01:29:48.629Z,933.42
2017-06-13T01:30:16.683Z,933.41
2017-06-13T01:30:44.818Z,933.44
2017-06-13T01:31:13.025Z,933.39
2017-06-13T01:31:40.880Z,933.42
2017-06-13T01:32:08.999Z,933.39
2017-06-13T01:32:37.247Z,933.4
2017-06-13T01:33:05.434Z,933.4
2017-06-13T01:33:33.695Z,933.38
2017-06-13T01:34:01.878Z,933.36
2017-06-13T01:34:29.934Z,933.39
2017-06-13T01:34:58.188Z,933.33
2017-06-13T01:35:26.268Z,933.35
2017-06-13T01:35:54.453Z,933.37
2017-06-13T01:36:22.414Z,933.33
2017-06-13T01:36:50.661Z,933.37
2017-06-13T01:37:18.862Z,933.35
2017-06-13T01:37:46.956Z,933.36
2017-06-13T01:38:15.113Z,933.35
2017-06-13T01:38:43.379Z,933.34
2017-06-13T01:39:11.599Z,933.31
2017-06-13T01:39:39.658Z,933.34
2017-06-13T01:40:07.766Z,933.34
2017-06-13T01:40:35.818Z,933.27
2017-06-13T01:41:03.956Z,933.29
2017-06-13T01:41:32.100Z,933.31
2017-06-13T01:42:00.273Z,933.31
2017-06-13T01:42:28.504Z,933.3
2017-06-13T01:42:56.642Z,933.33
2017-06-13T01:43:24.756Z,933.31
2017-06-13T01:43:52.904Z,933.32
2017-06-13T01:44:21.081Z,933.31
2017-06-13T01:44:49.261Z,933.32
2017-06-13T01:45:17.563Z,933.31
2017-06-13T01:45:45.789Z,933.32
2017-06-13T01:46:13.696Z,933.3
2017-06-13T01:46:41.902Z,933.29
2017-06-13T01:47:09.967Z,933.26
2017-06-13T01:47:38.178Z,933.29
2017-06-13T01:48:06.440Z,933.31
2017-06-13T01:48:34.576Z,933.3
2017-06-13T01:49:02.825Z,933.31
2017-06-13T01:49:30.924Z,933.28
2017-06-13T01:49:59.176Z,933.27
2017-06-13T01:50:27.365Z,933.29
2017-06-13T01:50:55.656Z,933.25
2017-06-13T01:51:23.723Z,933.26
2017-06-13T01:51:52.012Z,933.26
2017-06-13T01:52:20.180Z,933.24
2017-06-13T01:52:48.170Z,933.22
2017-06-13T01:53:16.541Z,933.23
2017-06-13T01:53:44.693Z,933.24
2017-06-13T01:54:12.938Z,933.26
2017-06-13T01:54:41.216Z,933.27
2017-06-13T01:55:09.382Z,933.23
2017-06-13T01:55:37.555Z,933.26
2017-06-13T01:56:05.531Z,933.24
2017-06-13T01:56:33.725Z,933.26
2017-06-13T01:57:01.938Z,933.25
2017-06-13T01:57:30.103Z,933.26
2017-06-13T01:57:58.542Z,933.26
2017-06-13T01:58:26.729Z,933.27
2017-06-13T01:58:54.856Z,933.26
2017-06-13T01:59:23.092Z,933.3
2017-06-13T01:59:51.121Z,933.26
2017-06-13T02:00:19.389Z,933.26
2017-06-13T02:00:47.563Z,933.27
2017-06-13T02:01:15.768Z,933.25
2017-06-13T02:01:43.957Z,933.28
2017-06-13T02:02:12.227Z,933.24
2017-06-13T02:02:40.402Z,933.26
2017-06-13T02:03:08.926Z,933.3
2017-06-13T02:03:37.085Z,933.28
2017-06-13T02:04:05.323Z,933.26
2017-06-13T02:04:33.476Z,933.27
2017-06-13T02:05:01.642Z,933.29
2017-06-13T02:05:29.788Z,933.29
2017-06-13T02:05:57.896Z,933.26
2017-06-13T02:06:26.062Z,933.25
2017-06-13T02:06:54.087Z,933.28
2017-06-13T02:07:22.269Z,933.27
2017-06-13T02:07:50.523Z,933.26
2017-06-13T02:08:19.091Z,933.27
2017-06-13T02:08:47.304Z,933.26
2017-06-13T02:09:15.470Z,933.22
2017-06-13T02:09:43.670Z,933.22
2017-06-13T02:10:11.852Z,933.21
2017-06-13T02:10:40.076Z,933.22
2017-06-13T02:11:08.262Z,933.23
2017-06-13T02:11:36.470Z,933.2
2017-06-13T02:12:04.662Z,933.2
2017-06-13T02:12:32.889Z,933.2
2017-06-13T02:13:01.120Z,933.19
2017-06-13T02:13:29.282Z,933.15
2017-06-13T02:13:57.348Z,933.18
2017-06-13T02:14:25.535Z,933.15
2017-06-13T02:14:53.653Z,933.17
2017-06-13T02:15:21.912Z,933.18
2017-06-13T02:15:50.200Z,933.19
2017-06-13T02:16:18.348Z,933.25
2017-06-13T02:16:46.635Z,933.19
2017-06-13T02:17:14.913Z,933.21
2017-06-13T02:17:43.049Z,933.2
2017-06-13T02:18:11.074Z,933.2
2017-06-13T02:18:39.468Z,933.18
2017-06-13T02:19:07.647Z,933.22
2017-06-13T02:19:35.863Z,933.21
2017-06-13T02:20:04.072Z,933.21
2017-06-13T02:20:32.217Z,933.15
2017-06-13T02:21:00.427Z,933.13
2017-06-13T02:21:28.651Z,933.19
2017-06-13T02:21:56.674Z,933.15
2017-06-13T02:22:24.961Z,933.17
2017-06-13T02:22:53.240Z,933.14
2017-06-13T02:23:21.572Z,933.17
2017-06-13T02:23:49.939Z,933.13
2017-06-13T02:24:18.157Z,933.16
2017-06-13T02:24:46.406Z,933.14
2017-06-13T02:25:14.787Z,933.13
2017-06-13T02:25:43.077Z,933.17
2017-06-13T02:26:11.302Z,933.19
2017-06-13T02:26:39.668Z,933.15
2017-06-13T02:27:07.912Z,933.19
2017-06-13T02:27:36.241Z,933.16
2017-06-13T02:28:04.502Z,933.16
2017-06-13T02:28:32.985Z,933.15
2017-06-13T02:29:01.195Z,933.14
2017-06-13T02:29:29.327Z,933.14
2017-06-13T02:29:57.344Z,933.11
2017-06-13T02:30:25.463Z,933.12
2017-06-13T02:30:53.662Z,933.13
2017-06-13T02:31:21.824Z,933.12
2017-06-13T02:31:49.989Z,933.16
2017-06-13T02:32:18.212Z,933.14
2017-06-13T02:32:46.398Z,933.15
2017-06-13T02:33:14.679Z,933.13
2017-06-13T02:33:42.999Z,933.13
2017-06-13T02:34:11.058Z,933.14
2017-06-13T02:34:39.153Z,933.15
2017-06-13T02:35:07.403Z,933.13
2017-06-13T02:35:35.666Z,933.12
2017-06-13T02:36:03.741Z,933.12
2017-06-13T02:36:31.888Z,933.14
2017-06-13T02:36:59.971Z,933.1
2017-06-13T02:37:28.097Z,933.11
2017-06-13T02:37:56.285Z,933.14
2017-06-13T02:38:24.539Z,933.12
2017-06-13T02:38:52.871Z,933.14
2017-06-13T02:39:21.023Z,933.11
2017-06-13T02:39:49.264Z,933.13
2017-06-13T02:40:17.429Z,933.12
2017-06-13T02:40:45.714Z,933.14
2017-06-13T02:41:13.781Z,933.13
2017-06-13T02:41:42.000Z,933.15
2017-06-13T02:42:10.107Z,933.13
2017-06-13T02:42:38.383Z,933.14
2017-06-13T02:43:06.629Z,933.12
2017-06-13T02:43:34.875Z,933.13
2017-06-13T02:44:03.227Z,933.11
2017-06-13T02:44:31.226Z,933.12
2017-06-13T02:44:59.478Z,933.13
2017-06-13T02:45:27.717Z,933.11
2017-06-13T02:45:55.769Z,933.15
2017-06-13T02:46:23.949Z,933.13
2017-06-13T02:46:52.125Z,933.14
2017-06-13T02:47:20.198Z,933.14
2017-06-13T02:47:48.492Z,933.15
2017-06-13T02:48:16.689Z,933.15
2017-06-13T02:48:44.994Z,933.16
2017-06-13T02:49:13.266Z,933.12
2017-06-13T02:49:41.481Z,933.13
2017-06-13T02:50:09.659Z,933.11
2017-06-13T02:50:37.885Z,933.13
2017-06-13T02:51:05.948Z,933.15
2017-06-13T02:51:34.010Z,933.17
2017-06-13T02:52:02.205Z,933.14
2017-06-13T02:52:30.317Z,933.12
2017-06-13T02:52:58.250Z,933.11
2017-06-13T02:53:26.528Z,933.1
2017-06-13T02:53:55.150Z,933.14
2017-06-13T02:54:23.144Z,933.1
2017-06-13T02:54:51.452Z,933.13
2017-06-13T02:55:19.678Z,933.12
2017-06-13T02:55:47.986Z,933.09
2017-06-13T02:56:16.287Z,933.13
2017-06-13T02:56:44.551Z,933.11
2017-06-13T02:57:12.758Z,933.12
2017-06-13T02:57:41.066Z,933.12
2017-06-13T02:58:09.328Z,933.13
2017-06-13T02:58:37.585Z,933.11
2017-06-13T02:59:06.087Z,933.12
2017-06-13T02:59:34.092Z,933.15
2017-06-13T03:00:02.369Z,933.1
2017-06-13T03:00:30.655Z,933.16
2017-06-13T03:00:58.879Z,933.16
2017-06-13T03:01:26.925Z,933.17
2017-06-13T03:01:55.162Z,933.16
2017-06-13T03:02:23.436Z,933.16
2017-06-13T03:02:51.620Z,933.17
2017-06-13T03:03:19.734Z,933.14
2017-06-13T03:03:47.986Z,933.17
2017-06-13T03:04:16.354Z,933.13
2017-06-13T03:04:44.486Z,933.13
2017-06-13T03:05:12.766Z,933.19
2017-06-13T03:05:41.058Z,933.14
2017-06-13T03:06:09.299Z,933.15
2017-06-13T03:06:37.351Z,933.17
2017-06-13T03:07:05.385Z,933.16
2017-06-13T03:07:33.516Z,933.19
2017-06-13T03:08:01.696Z,933.2
2017-06-13T03:08:29.941Z,933.2
2017-06-13T03:08:58.158Z,933.23
2017-06-13T03:09:26.361Z,933.22
2017-06-13T03:09:54.623Z,933.23
2017-06-13T03:10:22.911Z,933.24
2017-06-13T03:10:51.150Z,933.21
2017-06-13T03:11:19.286Z,933.22
2017-06-13T03:11:47.370Z,933.23
2017-06-13T03:12:15.540Z,933.2
2017-06-13T03:12:43.775Z,933.22
2017-06-13T03:13:12.037Z,933.22
2017-06-13T03:13:40.271Z,933.23
2017-06-13T03:14:08.600Z,933.27
2017-06-13T03:14:36.745Z,933.25
2017-06-13T03:15:04.870Z,933.21
2017-06-13T03:15:33.108Z,933.26
2017-06-13T03:16:01.265Z,933.27
2017-06-13T03:16:29.535Z,933.21
2017-06-13T03:16:57.593Z,933.25
2017-06-13T03:17:25.838Z,933.23
2017-06-13T03:17:53.919Z,933.21
2017-06-13T03:18:22.088Z,933.22
2017-06-13T03:18:50.108Z,933.23
2017-06-13T03:19:18.485Z,933.21
2017-06-13T03:19:46.580Z,933.23
2017-06-13T03:20:14.831Z,933.2
2017-06-13T03:20:43.003Z,933.22
2017-06-13T03:21:11.188Z,933.23
2017-06-13T03:21:39.361Z,933.24
2017-06-13T03:22:07.533Z,933.24
2017-06-13T03:22:35.704Z,933.21
2017-06-13T03:23:03.971Z,933.22
2017-06-13T03:23:32.268Z,933.26
2017-06-13T03:24:00.335Z,933.23
2017-06-13T03:24:28.658Z,933.26
2017-06-13T03:24:56.950Z,933.28
2017-06-13T03:25:25.108Z,933.25
2017-06-13T03:25:53.320Z,933.24
2017-06-13T03:26:21.420Z,933.26
2017-06-13T03:26:49.697Z,933.25
2017-06-13T03:27:17.845Z,933.28
2017-06-13T03:27:46.039Z,933.31
2017-06-13T03:28:14.212Z,933.3
2017-06-13T03:28:42.343Z,933.28
2017-06-13T03:29:10.615Z,933.3
2017-06-13T03:29:38.983Z,933.3
2017-06-13T03:30:07.245Z,933.3
2017-06-13T03:30:35.448Z,933.28
2017-06-13T03:31:03.697Z,933.26
2017-06-13T03:31:31.865Z,933.28
2017-06-13T03:32:00.019Z,933.3
2017-06-13T03:32:28.070Z,933.3
2017-06-13T03:32:56.248Z,933.3
2017-06-13T03:33:24.518Z,933.29
2017-06-13T03:33:52.809Z,933.31
2017-06-13T03:34:21.192Z,933.34
2017-06-13T03:34:49.486Z,933.31
2017-06-13T03:35:17.657Z,933.32
2017-06-13T03:35:45.824Z,933.29
2017-06-13T03:36:13.886Z,933.29
2017-06-13T03:36:42.025Z,933.3
2017-06-13T03:37:10.296Z,933.29
2017-06-13T03:37:38.386Z,933.3
2017-06-13T03:38:06.648Z,933.31
2017-06-13T03:38:34.889Z,933.29
2017-06-13T03:39:03.066Z,933.29
2017-06-13T03:39:31.522Z,933.27
2017-06-13T03:39:59.694Z,933.3
2017-06-13T03:40:27.825Z,933.3
2017-06-13T03:40:56.023Z,933.32
2017-06-13T03:41:24.188Z,933.29
2017-06-13T03:41:52.453Z,933.33
2017-06-13T03:42:20.587Z,933.3
2017-06-13T03:42:48.722Z,933.3
2017-06-13T03:43:16.906Z,933.31
2017-06-13T03:43:45.166Z,933.3
2017-06-13T03:44:13.448Z,933.33
2017-06-13T03:44:41.805Z,933.31
2017-06-13T03:45:09.927Z,933.33
2017-06-13T03:45:38.243Z,933.34
2017-06-13T03:46:06.297Z,933.33
2017-06-13T03:46:34.412Z,933.32
2017-06-13T03:47:02.577Z,933.32
2017-06-13T03:47:30.729Z,933.36
2017-06-13T03:47:58.821Z,933.31
2017-06-13T03:48:27.064Z,933.31
2017-06-13T03:48:55.291Z,933.31
2017-06-13T03:49:23.545Z,933.32
2017-06-13T03:49:51.798Z,933.35
2017-06-13T03:50:19.984Z,933.33
2017-06-13T03:50:47.973Z,933.33
2017-06-13T03:51:16.184Z,933.32
2017-06-13T03:51:44.446Z,933.35
2017-06-13T03:52:12.534Z,933.37
2017-06-13T03:52:40.805Z,933.39
2017-06-13T03:53:09.034Z,933.4
2017-06-13T03:53:37.219Z,933.43
2017-06-13T03:54:05.489Z,933.43
2017-06-13T03:54:33.799Z,933.46
2017-06-13T03:55:02.159Z,933.47
2017-06-13T03:55:30.313Z,933.48
2017-06-13T03:55:58.602Z,933.46
2017-06-13T03:56:26.678Z,933.47
2017-06-13T03:56:54.823Z,933.47
2017-06-13T03:57:22.975Z,933.47
2017-06-13T03:57:51.081Z,933.46
2017-06-13T03:58:19.162Z,933.48
2017-06-13T03:58:47.235Z,933.48
2017-06-13T03:59:15.395Z,933.46
2017-06-13T03:59:43.827Z,933.45
2017-06-13T04:00:12.075Z,933.44
2017-06-13T04:00:40.077Z,933.41
2017-06-13T04:01:08.090Z,933.4
2017-06-13T04:01:36.393Z,933.39
2017-06-13T04:02:04.553Z,933.39
2017-06-13T04:02:32.780Z,933.39
2017-06-13T04:03:01.012Z,933.39
2017-06-13T04:03:29.066Z,933.4
2017-06-13T04:03:57.329Z,933.38
2017-06-13T04:04:25.585Z,933.41
2017-06-13T04:04:53.980Z,933.4
2017-06-13T04:05:22.191Z,933.38
2017-06-13T04:05:50.490Z,933.33
2017-06-13T04:06:18.689Z,933.35
2017-06-13T04:06:46.752Z,933.33
2017-06-13T04:07:14.903Z,933.34
2017-06-13T04:07:43.049Z,933.34
2017-06-13T04:08:11.058Z,933.33
2017-06-13T04:08:39.174Z,933.32
2017-06-13T04:09:07.249Z,933.3
2017-06-13T04:09:35.489Z,933.32
2017-06-13T04:10:03.836Z,933.3
2017-06-13T04:10:31.990Z,933.33
2017-06-13T04:11:00.134Z,933.31
2017-06-13T04:11:28.206Z,933.32
2017-06-13T04:11:56.361Z,933.33
2017-06-13T04:12:24.616Z,933.3
2017-06-13T04:12:52.896Z,933.31
2017-06-13T04:13:21.066Z,933.3
2017-06-13T04:13:49.293Z,933.3
2017-06-13T04:14:17.561Z,933.31
2017-06-13T04:14:45.851Z,933.29
2017-06-13T04:15:14.288Z,933.32
2017-06-13T04:15:42.453Z,933.3
2017-06-13T04:16:10.731Z,933.34
2017-06-13T04:16:39.016Z,933.34
2017-06-13T04:17:07.295Z,933.36
2017-06-13T04:17:35.446Z,933.34
2017-06-13T04:18:03.587Z,933.33
2017-06-13T04:18:31.803Z,933.36
2017-06-13T04:18:59.978Z,933.36
2017-06-13T04:19:28.185Z,933.35
2017-06-13T04:19:56.354Z,933.34
2017-06-13T04:20:24.865Z,933.33
2017-06-13T04:20:53.114Z,933.35
2017-06-13T04:21:21.257Z,933.32
2017-06-13T04:21:49.335Z,933.34
2017-06-13T04:22:17.468Z,933.31
2017-06-13T04:22:45.548Z,933.32
2017-06-13T04:23:13.802Z,933.31
2017-06-13T04:23:42.083Z,933.31
2017-06-13T04:24:10.324Z,933.33
2017-06-13T04:24:38.461Z,933.3
2017-06-13T04:25:06.621Z,933.34
2017-06-13T04:25:34.679Z,933.35
2017-06-13T04:26:02.899Z,933.33
2017-06-13T04:26:31.036Z,933.35
2017-06-13T04:26:59.166Z,933.32
2017-06-13T04:27:27.425Z,933.35
2017-06-13T04:27:55.659Z,933.38
2017-06-13T04:28:23.783Z,933.3
2017-06-13T04:28:51.837Z,933.34
2017-06-13T04:29:19.910Z,933.32
2017-06-13T04:29:48.086Z,933.33
2017-06-13T04:30:16.653Z,933.33
2017-06-13T04:30:44.790Z,933.28
2017-06-13T04:31:13.017Z,933.27
2017-06-13T04:31:41.093Z,933.33
2017-06-13T04:32:09.190Z,933.29
2017-06-13T04:32:37.255Z,933.28
2017-06-13T04:33:05.396Z,933.3
2017-06-13T04:33:33.487Z,933.31
2017-06-13T04:34:01.627Z,933.28
2017-06-13T04:34:29.781Z,933.29
2017-06-13T04:34:57.924Z,933.3
2017-06-13T04:35:26.350Z,933.32
2017-06-13T04:35:54.590Z,933.27
2017-06-13T04:36:22.750Z,933.29
2017-06-13T04:36:50.782Z,933.27
2017-06-13T04:37:18.947Z,933.29
2017-06-13T04:37:46.991Z,933.27
2017-06-13T04:38:15.112Z,933.27
2017-06-13T04:38:43.081Z,933.26
2017-06-13T04:39:11.337Z,933.22
2017-06-13T04:39:39.484Z,933.22
2017-06-13T04:40:07.585Z,933.19
2017-06-13T04:40:35.766Z,933.18
2017-06-13T04:41:03.748Z,933.18
2017-06-13T04:41:31.905Z,933.13
2017-06-13T04:42:00.191Z,933.14
2017-06-13T04:42:28.283Z,933.1
2017-06-13T04:42:56.536Z,933.12
2017-06-13T04:43:24.756Z,933.08
2017-06-13T04:43:52.911Z,933.04
2017-06-13T04:44:21.013Z,933.06
2017-06-13T04:44:49.264Z,933.08
2017-06-13T04:45:17.413Z,933.07
2017-06-13T04:45:45.654Z,933.08
2017-06-13T04:46:13.944Z,933.12
2017-06-13T04:46:42.182Z,933.11
2017-06-13T04:47:10.284Z,933.09
2017-06-13T04:47:38.570Z,933.11
2017-06-13T04:48:06.858Z,933.15
2017-06-13T04:48:35.111Z,933.1
2017-06-13T04:49:03.225Z,933.14
2017-06-13T04:49:31.387Z,933.14
2017-06-13T04:49:59.631Z,933.14
2017-06-13T04:50:27.921Z,933.14
2017-06-13T04:50:56.144Z,933.13
2017-06-13T04:51:24.351Z,933.13
2017-06-13T04:51:52.487Z,933.15
2017-06-13T04:52:20.767Z,933.13
2017-06-13T04:52:48.821Z,933.09
2017-06-13T04:53:17.075Z,933.12
2017-06-13T04:53:45.273Z,933.09
2017-06-13T04:54:13.438Z,933.08
2017-06-13T04:54:41.463Z,933.08
2017-06-13T04:55:09.678Z,933.09
2017-06-13T04:55:38.072Z,933.09
2017-06-13T04:56:06.337Z,933.1
2017-06-13T04:56:34.584Z,933.13
2017-06-13T04:57:02.659Z,933.1
2017-06-13T04:57:30.916Z,933.11
2017-06-13T04:57:59.176Z,933.14
2017-06-13T04:58:27.228Z,933.09
2017-06-13T04:58:55.083Z,933.14
2017-06-13T04:59:23.143Z,933.11
2017-06-13T04:59:51.150Z,933.14
2017-06-13T05:00:19.413Z,933.15
2017-06-13T05:00:47.636Z,933.18
2017-06-13T05:01:15.829Z,933.17
2017-06-13T05:01:43.893Z,933.17
2017-06-13T05:02:11.963Z,933.16
2017-06-13T05:02:40.135Z,933.15
2017-06-13T05:03:08.382Z,933.16
2017-06-13T05:03:36.378Z,933.16
2017-06-13T05:04:04.681Z,933.18
2017-06-13T05:04:32.918Z,933.19
2017-06-13T05:05:01.190Z,933.18
2017-06-13T05:05:29.310Z,933.18
2017-06-13T05:05:57.720Z,933.19
2017-06-13T05:06:25.847Z,933.22
2017-06-13T05:06:54.080Z,933.2
2017-06-13T05:07:22.321Z,933.21
2017-06-13T05:07:50.363Z,933.23
2017-06-13T05:08:18.650Z,933.24
2017-06-13T05:08:46.932Z,933.23
2017-06-13T05:09:15.084Z,933.23
2017-06-13T05:09:43.320Z,933.25
2017-06-13T05:10:11.559Z,933.23
2017-06-13T05:10:39.726Z,933.22
2017-06-13T05:11:07.968Z,933.25
2017-06-13T05:11:36.264Z,933.22
2017-06-13T05:12:04.299Z,933.24
2017-06-13T05:12:32.513Z,933.28
2017-06-13T05:13:00.484Z,933.26
2017-06-13T05:13:28.649Z,933.27
2017-06-13T05:13:56.826Z,933.27
2017-06-13T05:14:25.059Z,933.26
2017-06-13T05:14:53.278Z,933.27
2017-06-13T05:15:21.378Z,933.26
2017-06-13T05:15:49.665Z,933.25
2017-06-13T05:16:17.818Z,933.27
2017-06-13T05:16:46.015Z,933.27
2017-06-13T05:17:14.271Z,933.3
2017-06-13T05:17:42.420Z,933.3
2017-06-13T05:18:10.516Z,933.3
2017-06-13T05:18:38.701Z,933.3
2017-06-13T05:19:06.900Z,933.31
2017-06-13T05:19:35.104Z,933.31
2017-06-13T05:20:03.288Z,933.32
2017-06-13T05:20:31.453Z,933.34
2017-06-13T05:20:59.802Z,933.31
2017-06-13T05:21:28.030Z,933.31
2017-06-13T05:21:56.318Z,933.28
2017-06-13T05:22:24.350Z,933.28
2017-06-13T05:22:52.413Z,933.28
2017-06-13T05:23:20.671Z,933.28
2017-06-13T05:23:48.739Z,933.28
2017-06-13T05:24:16.901Z,933.29
2017-06-13T05:24:45.094Z,933.29
2017-06-13T05:25:13.312Z,933.34
2017-06-13T05:25:41.562Z,933.33
2017-06-13T05:26:09.906Z,933.31
2017-06-13T05:26:38.191Z,933.34
2017-06-13T05:27:06.400Z,933.27
2017-06-13T05:27:34.660Z,933.3
2017-06-13T05:28:02.828Z,933.26
2017-06-13T05:28:30.986Z,933.25
2017-06-13T05:28:59.129Z,933.21
2017-06-13T05:29:27.146Z,933.2
2017-06-13T05:29:55.405Z,933.18
2017-06-13T05:30:23.564Z,933.19
2017-06-13T05:30:51.832Z,933.13
2017-06-13T05:31:20.048Z,933.11
2017-06-13T05:31:48.235Z,933.13
2017-06-13T05:32:16.345Z,933.11
2017-06-13T05:32:44.607Z,933.14
2017-06-13T05:33:12.729Z,933.15
2017-06-13T05:33:40.674Z,933.18
2017-06-13T05:34:08.968Z,933.19
2017-06-13T05:34:37.235Z,933.2
2017-06-13T05:35:05.444Z,933.22
2017-06-13T05:35:33.578Z,933.24
2017-06-13T05:36:01.836Z,933.23
2017-06-13T05:36:30.176Z,933.22
2017-06-13T05:36:58.119Z,933.2
2017-06-13T05:37:26.431Z,933.18
2017-06-13T05:37:54.699Z,933.17
2017-06-13T05:38:22.867Z,933.16
2017-06-13T05:38:51.116Z,933.16
2017-06-13T05:39:19.283Z,933.14
2017-06-13T05:39:47.331Z,933.13
2017-06-13T05:40:15.595Z,933.14
2017-06-13T05:40:43.748Z,933.12
2017-06-13T05:41:12.000Z,933.16
2017-06-13T05:41:40.020Z,933.16
2017-06-13T05:42:08.217Z,933.13
2017-06-13T05:42:36.403Z,933.15
2017-06-13T05:43:04.667Z,933.13
2017-06-13T05:43:32.554Z,933.13
2017-06-13T05:44:00.601Z,933.16
2017-06-13T05:44:28.795Z,933.18
2017-06-13T05:44:56.956Z,933.15
2017-06-13T05:45:25.017Z,933.14
2017-06-13T05:45:53.289Z,933.12
2017-06-13T05:46:21.748Z,933.13
2017-06-13T05:46:49.799Z,933.12
2017-06-13T05:47:17.962Z,933.11
2017-06-13T05:47:46.245Z,933.11
2017-06-13T05:48:14.417Z,933.11
2017-06-13T05:48:42.559Z,933.1
2017-06-13T05:49:10.845Z,933.11
2017-06-13T05:49:39.009Z,933.13
2017-06-13T05:50:07.263Z,933.1
2017-06-13T05:50:35.474Z,933.14
2017-06-13T05:51:03.745Z,933.08
2017-06-13T05:51:32.044Z,933.11
2017-06-13T05:52:00.328Z,933.13
2017-06-13T05:52:28.580Z,933.09
2017-06-13T05:52:56.878Z,933.1